createdAt,value
2019-03-04T00:05:14.119Z,74.65
2019-03-04T00:07:44.227Z,74.40
2019-03-04T00:10:14.333Z,74.10
2019-03-04T00:12:44.420Z,73.96
2019-03-04T00:15:14.534Z,73.92
2019-03-04T00:18:05.112Z,73.81
2019-03-04T00:20:35.209Z,73.83
2019-03-04T00:23:05.329Z,73.83
2019-03-04T00:25:35.467Z,73.85
2019-03-04T00:28:05.697Z,73.80
2019-03-04T00:30:35.781Z,73.85
2019-03-04T00:33:17.980Z,73.83
2019-03-04T00:35:48.094Z,74.05
2019-03-04T00:38:18.232Z,74.03
2019-03-04T00:40:48.336Z,74.02
2019-03-04T00:43:18.668Z,74.10
2019-03-04T00:45:48.765Z,74.04
2019-03-04T00:48:18.897Z,74.07
2019-03-04T00:50:48.996Z,74.03
2019-03-04T00:53:19.119Z,74.11
2019-03-04T00:55:49.211Z,74.09
2019-03-04T00:58:19.376Z,74.09
2019-03-04T01:00:49.486Z,74.08
2019-03-04T01:03:19.587Z,74.19
2019-03-04T01:05:49.694Z,74.17
2019-03-04T01:08:19.853Z,74.08
2019-03-04T01:11:01.850Z,74.16
2019-03-04T01:13:44.104Z,74.13
2019-03-04T01:16:14.181Z,74.14
2019-03-04T01:18:44.287Z,74.28
2019-03-04T01:21:14.414Z,74.33
2019-03-04T01:23:44.616Z,74.48
2019-03-04T01:26:14.771Z,74.63
2019-03-04T01:28:44.929Z,74.67
2019-03-04T01:31:15.036Z,74.61
2019-03-04T01:33:56.777Z,74.58
2019-03-04T01:36:26.872Z,74.44
2019-03-04T01:38:56.996Z,74.39
2019-03-04T01:41:27.086Z,74.44
2019-03-04T01:43:57.194Z,74.49
2019-03-04T01:46:27.328Z,74.63
2019-03-04T01:48:57.452Z,74.76
2019-03-04T01:51:27.547Z,74.95
2019-03-04T01:53:57.657Z,75.19
2019-03-04T01:56:27.746Z,74.76
2019-03-04T01:58:57.843Z,74.54
2019-03-04T02:02:06.037Z,74.73
2019-03-04T02:04:36.140Z,74.34
2019-03-04T02:10:37.035Z,75.00
2019-03-04T02:13:07.130Z,75.60
2019-03-04T02:15:37.226Z,75.95
2019-03-04T02:18:07.318Z,76.19
2019-03-04T02:20:58.149Z,76.11
2019-03-04T02:23:28.246Z,76.42
2019-03-04T02:26:22.297Z,77.45
2019-03-04T02:28:52.474Z,77.15
2019-03-04T02:31:24.212Z,77.04
2019-03-04T02:33:54.313Z,77.28
2019-03-04T02:36:24.476Z,76.96
2019-03-04T02:38:54.581Z,76.77
2019-03-04T02:41:24.804Z,76.18
2019-03-04T02:46:43.969Z,76.12
2019-03-04T02:49:14.091Z,76.64
2019-03-04T02:51:44.210Z,76.97
2019-03-04T02:54:15.943Z,77.68
2019-03-04T02:56:46.051Z,78.42
2019-03-04T02:59:16.140Z,78.39
2019-03-04T03:01:46.251Z,78.78
2019-03-04T03:04:16.358Z,78.77
2019-03-04T03:06:46.465Z,79.07
2019-03-04T03:09:16.581Z,79.03
2019-03-04T03:11:46.701Z,79.65
2019-03-04T03:14:16.835Z,79.72
2019-03-04T03:16:48.550Z,79.11
2019-03-04T03:19:18.653Z,78.91
2019-03-04T03:21:48.757Z,79.53
2019-03-04T03:24:18.858Z,79.81
2019-03-04T03:29:30.997Z,79.87
2019-03-04T03:32:01.130Z,80.03
2019-03-04T03:34:31.207Z,80.02
2019-03-04T03:37:01.331Z,79.56
2019-03-04T03:39:31.421Z,79.73
2019-03-04T03:42:01.522Z,79.91
2019-03-04T03:44:31.604Z,80.05
2019-03-04T03:47:01.717Z,80.31
2019-03-04T03:49:31.797Z,80.44
2019-03-04T03:52:01.927Z,80.34
2019-03-04T03:54:51.134Z,80.09
2019-03-04T03:57:22.849Z,79.95
2019-03-04T03:59:52.990Z,80.34
2019-03-04T04:02:23.096Z,80.16
2019-03-04T04:04:53.208Z,80.53
2019-03-04T04:07:23.320Z,80.62
2019-03-04T04:09:53.441Z,81.16
2019-03-04T04:12:23.537Z,81.02
2019-03-04T04:14:53.638Z,81.02
2019-03-04T04:17:23.749Z,81.14
2019-03-04T04:19:53.873Z,81.16
2019-03-04T04:22:43.376Z,81.31
2019-03-04T04:25:13.665Z,81.26
2019-03-04T04:27:45.401Z,81.14
2019-03-04T04:32:56.843Z,80.81
2019-03-04T04:38:16.009Z,81.29
2019-03-04T04:40:46.181Z,81.17
2019-03-04T04:43:16.226Z,81.24
2019-03-04T04:45:47.952Z,81.28
2019-03-04T04:48:18.072Z,81.34
2019-03-04T04:50:48.184Z,81.38
2019-03-04T04:53:18.327Z,81.30
2019-03-04T04:55:48.407Z,81.02
2019-03-04T04:58:18.521Z,81.11
2019-03-04T05:00:48.724Z,81.14
2019-03-04T05:03:18.871Z,81.17
2019-03-04T05:05:48.985Z,81.09
2019-03-04T05:08:19.132Z,81.44
2019-03-04T05:10:49.249Z,81.38
2019-03-04T05:13:19.358Z,81.67
2019-03-04T05:15:49.458Z,81.79
2019-03-04T05:21:18.100Z,81.79
2019-03-04T05:23:55.830Z,82.22
2019-03-04T05:26:25.956Z,82.33
2019-03-04T05:29:08.043Z,82.52
2019-03-04T05:31:38.276Z,82.69
2019-03-04T05:34:08.370Z,82.66
2019-03-04T05:36:38.484Z,82.59
2019-03-04T05:39:08.612Z,82.38
2019-03-04T05:41:39.006Z,82.27
2019-03-04T05:47:06.235Z,82.57
2019-03-04T05:49:36.435Z,82.73
2019-03-04T05:52:06.576Z,82.85
2019-03-04T05:54:37.152Z,82.86
2019-03-04T05:57:07.241Z,82.88
2019-03-04T05:59:37.413Z,82.81
2019-03-04T06:02:09.789Z,82.79
2019-03-04T06:10:51.500Z,82.50
2019-03-04T06:13:21.696Z,82.45
2019-03-04T06:15:51.818Z,82.53
2019-03-04T06:18:21.938Z,82.47
2019-03-04T06:20:52.157Z,82.12
2019-03-04T06:23:22.244Z,82.08
2019-03-04T06:26:11.441Z,82.08
2019-03-04T06:28:41.828Z,81.79
2019-03-04T06:31:11.972Z,81.39
2019-03-04T06:33:42.093Z,81.39
2019-03-04T06:36:24.354Z,81.38
2019-03-04T06:38:54.511Z,81.45
2019-03-04T06:41:24.739Z,81.24
2019-03-04T06:44:05.785Z,81.34
2019-03-04T06:46:35.989Z,81.12
2019-03-04T06:49:34.461Z,81.25
2019-03-04T06:52:05.100Z,81.46
2019-03-04T06:55:13.468Z,81.66
2019-03-04T06:57:49.587Z,81.48
2019-03-04T07:00:57.869Z,81.55
2019-03-04T07:03:51.897Z,81.64
2019-03-04T07:06:23.716Z,81.71
2019-03-04T07:09:14.880Z,81.69
2019-03-04T07:11:55.542Z,81.94
2019-03-04T07:14:27.330Z,82.19
2019-03-04T07:17:01.201Z,82.08
2019-03-04T07:19:42.561Z,82.18
2019-03-04T07:22:31.850Z,82.22
2019-03-04T07:28:04.370Z,82.20
2019-03-04T07:39:27.057Z,82.52
2019-03-04T07:47:42.405Z,82.72
2019-03-04T07:50:12.677Z,82.73
2019-03-04T07:52:42.781Z,82.64
2019-03-04T07:55:12.939Z,82.58
2019-03-04T07:57:43.262Z,82.67
2019-03-04T08:00:13.610Z,82.57
2019-03-04T08:02:43.783Z,82.41
2019-03-04T08:11:43.300Z,81.86
2019-03-04T08:14:13.434Z,81.74
2019-03-04T08:16:43.529Z,81.72
2019-03-04T08:19:13.635Z,81.35
2019-03-04T08:21:43.745Z,81.33
2019-03-04T08:24:13.889Z,81.20
2019-03-04T08:26:43.982Z,81.22
2019-03-04T08:29:25.700Z,81.19
2019-03-04T08:31:55.814Z,81.17
2019-03-04T08:34:31.021Z,81.24
2019-03-04T08:37:03.410Z,81.69
2019-03-04T08:39:33.515Z,81.72
2019-03-04T08:42:03.627Z,81.85
2019-03-04T08:44:33.797Z,81.67
2019-03-04T08:47:03.953Z,81.86
2019-03-04T08:49:34.089Z,81.84
2019-03-04T08:55:16.968Z,81.92
2019-03-04T08:57:47.143Z,82.24
2019-03-04T09:03:20.831Z,82.20
2019-03-04T09:05:50.974Z,81.95
2019-03-04T09:11:21.573Z,81.87
2019-03-04T09:13:54.684Z,81.87
2019-03-04T09:16:24.831Z,81.84
2019-03-04T09:18:55.036Z,81.74
2019-03-04T09:21:25.152Z,81.42
2019-03-04T09:24:06.807Z,81.71
2019-03-04T09:26:48.927Z,81.47
2019-03-04T09:29:19.029Z,81.40
2019-03-04T09:31:49.152Z,81.51
2019-03-04T09:34:19.256Z,81.60
2019-03-04T09:36:49.345Z,81.53
2019-03-04T09:39:19.446Z,81.48
2019-03-04T09:44:45.535Z,81.12
2019-03-04T09:47:15.677Z,81.21
2019-03-04T09:49:45.790Z,81.24
2019-03-04T09:52:15.901Z,81.08
2019-03-04T09:54:46.078Z,81.20
2019-03-04T09:57:16.220Z,81.20
2019-03-04T09:59:47.044Z,81.19
2019-03-04T10:02:32.231Z,81.50
2019-03-04T10:05:40.418Z,81.59
2019-03-04T10:08:35.414Z,81.40
2019-03-04T10:11:43.725Z,81.46
2019-03-04T10:14:53.813Z,81.62
2019-03-04T10:18:02.133Z,81.40
2019-03-04T10:20:44.390Z,81.45
2019-03-04T10:23:37.532Z,80.92
2019-03-04T10:26:45.782Z,81.01
2019-03-04T10:29:53.962Z,80.83
2019-03-04T10:33:02.148Z,81.04
2019-03-04T10:36:10.341Z,80.73
2019-03-04T10:39:22.411Z,80.57
2019-03-04T10:42:33.734Z,80.79
2019-03-04T10:45:26.929Z,80.61
2019-03-04T10:47:57.033Z,80.42
2019-03-04T10:53:08.868Z,80.79
2019-03-04T10:55:42.259Z,81.03
2019-03-04T10:58:29.950Z,81.21
2019-03-04T11:03:42.366Z,81.00
2019-03-04T11:06:12.509Z,80.87
2019-03-04T11:08:42.596Z,81.00
2019-03-04T11:11:12.690Z,80.89
2019-03-04T11:13:42.787Z,81.19
2019-03-04T11:16:12.883Z,81.31
2019-03-04T11:18:43.001Z,81.07
2019-03-04T11:21:13.094Z,81.05
2019-03-04T11:23:43.204Z,81.16
2019-03-04T11:26:13.314Z,81.30
2019-03-04T11:28:43.475Z,81.38
2019-03-04T11:31:13.594Z,81.33
2019-03-04T11:33:43.708Z,81.18
2019-03-04T11:36:16.866Z,81.17
2019-03-04T11:38:51.135Z,81.17
2019-03-04T11:41:36.148Z,81.01
2019-03-04T11:44:13.910Z,81.03
2019-03-04T11:46:44.085Z,81.00
2019-03-04T11:49:14.350Z,81.10
2019-03-04T11:54:59.418Z,81.17
2019-03-04T11:57:48.694Z,81.27
2019-03-04T12:00:41.027Z,81.18
2019-03-04T12:03:11.259Z,81.24
2019-03-04T12:05:43.281Z,81.15
2019-03-04T12:08:32.593Z,80.96
2019-03-04T12:11:02.772Z,80.96
2019-03-04T12:13:32.900Z,80.97
2019-03-04T12:18:55.387Z,81.25
2019-03-04T12:21:25.498Z,80.92
2019-03-04T12:23:55.614Z,81.06
2019-03-04T12:26:25.870Z,81.04
2019-03-04T12:28:57.621Z,81.20
2019-03-04T12:34:39.125Z,81.08
2019-03-04T12:37:09.261Z,80.87
2019-03-04T12:39:39.382Z,81.11
2019-03-04T12:42:09.497Z,80.80
2019-03-04T12:44:39.592Z,80.57
2019-03-04T12:47:09.721Z,80.79
2019-03-04T12:49:39.840Z,80.83
2019-03-04T12:52:09.938Z,81.23
2019-03-04T12:54:40.050Z,81.14
2019-03-04T12:57:10.142Z,81.25
2019-03-04T12:59:40.272Z,81.42
2019-03-04T13:02:10.331Z,81.54
2019-03-04T13:04:42.206Z,81.51
2019-03-04T13:07:12.258Z,81.66
2019-03-04T13:10:02.856Z,81.82
2019-03-04T13:12:35.004Z,82.03
2019-03-04T13:15:08.568Z,82.10
2019-03-04T13:17:57.937Z,82.11
2019-03-04T13:20:28.122Z,82.21
2019-03-04T13:23:17.298Z,82.35
2019-03-04T13:25:47.474Z,82.39
2019-03-04T13:28:17.609Z,82.34
2019-03-04T13:30:47.712Z,82.41
2019-03-04T13:33:17.836Z,82.41
2019-03-04T13:35:48.016Z,82.43
2019-03-04T13:38:18.163Z,82.68
2019-03-04T13:40:59.486Z,82.68
2019-03-04T13:43:29.633Z,82.81
2019-03-04T13:45:59.690Z,82.66
2019-03-04T13:48:29.801Z,82.74
2019-03-04T13:50:59.917Z,83.03
2019-03-04T13:53:30.033Z,82.97
2019-03-04T13:56:00.156Z,82.93
2019-03-04T13:58:42.291Z,82.75
2019-03-04T14:01:12.396Z,83.24
2019-03-04T14:03:42.494Z,83.24
2019-03-04T14:06:12.615Z,83.59
2019-03-04T14:08:42.731Z,83.45
2019-03-04T14:11:13.231Z,83.32
2019-03-04T14:14:02.491Z,83.22
2019-03-04T14:16:32.606Z,83.40
2019-03-04T14:19:02.712Z,83.08
2019-03-04T14:21:35.278Z,83.36
2019-03-04T14:24:24.529Z,83.58
2019-03-04T14:26:54.633Z,83.58
2019-03-04T14:29:26.391Z,83.54
2019-03-04T14:31:56.510Z,83.45
2019-03-04T14:34:26.668Z,83.46
2019-03-04T14:36:56.811Z,83.68
2019-03-04T14:39:46.131Z,83.71
2019-03-04T14:42:27.917Z,83.51
2019-03-04T14:45:10.088Z,83.78
2019-03-04T14:47:42.619Z,83.81
2019-03-04T14:53:18.765Z,84.33
2019-03-04T14:55:49.130Z,84.45
2019-03-04T14:58:35.514Z,84.45
2019-03-04T15:01:26.160Z,84.49
2019-03-04T15:03:56.506Z,84.50
2019-03-04T15:06:26.797Z,84.21
2019-03-04T15:08:56.939Z,84.10
2019-03-04T15:11:27.125Z,84.24
2019-03-04T15:13:57.305Z,84.33
2019-03-04T15:16:27.526Z,84.30
2019-03-04T15:18:57.949Z,84.29
2019-03-04T15:21:28.154Z,84.15
2019-03-04T15:23:58.429Z,84.01
2019-03-04T15:26:47.872Z,84.03
2019-03-04T15:29:18.167Z,84.16
2019-03-04T15:35:16.284Z,83.81
2019-03-04T15:40:42.307Z,83.97
2019-03-04T15:43:12.482Z,83.95
2019-03-04T15:48:39.417Z,83.99
2019-03-04T15:51:15.857Z,83.84
2019-03-04T15:53:46.086Z,83.92
2019-03-04T15:56:16.177Z,83.82
2019-03-04T15:58:46.693Z,83.62
2019-03-04T16:01:20.699Z,83.59
2019-03-04T16:03:53.231Z,83.56
2019-03-04T16:06:28.453Z,83.89
2019-03-04T16:08:58.837Z,83.85
2019-03-04T16:11:29.242Z,83.83
2019-03-04T16:13:59.739Z,83.96
2019-03-04T16:16:29.843Z,84.12
2019-03-04T16:19:00.025Z,84.06
2019-03-04T16:21:30.226Z,84.11
2019-03-04T16:24:00.499Z,84.35
2019-03-04T16:26:30.642Z,84.33
2019-03-04T16:29:00.878Z,84.45
2019-03-04T16:31:31.078Z,84.37
2019-03-04T16:34:01.261Z,84.34
2019-03-04T16:36:31.372Z,84.39
2019-03-04T16:39:03.790Z,84.35
2019-03-04T16:42:04.528Z,84.38
2019-03-04T16:47:18.252Z,84.29
2019-03-04T16:52:31.417Z,84.58
2019-03-04T16:55:01.594Z,84.78
2019-03-04T16:57:50.880Z,84.67
2019-03-04T17:00:40.170Z,84.71
2019-03-04T17:03:29.411Z,84.55
2019-03-04T17:05:59.631Z,84.56
2019-03-04T17:08:31.430Z,84.48
2019-03-04T17:11:01.641Z,84.43
2019-03-04T17:13:31.810Z,84.18
2019-03-04T17:16:13.505Z,84.15
2019-03-04T17:18:43.771Z,84.05
2019-03-04T17:21:13.974Z,83.89
2019-03-04T17:23:44.145Z,83.58
2019-03-04T17:26:38.166Z,83.37
2019-03-04T17:29:11.031Z,83.35
2019-03-04T17:31:43.888Z,83.36
2019-03-04T17:34:16.093Z,83.03
2019-03-04T17:36:46.219Z,82.98
2019-03-04T17:39:35.321Z,83.04
2019-03-04T17:45:00.306Z,83.06
2019-03-04T17:47:30.451Z,83.26
2019-03-04T17:50:00.627Z,82.96
2019-03-04T17:52:30.854Z,83.24
2019-03-04T17:55:00.981Z,83.01
2019-03-04T17:57:31.168Z,82.95
2019-03-04T18:05:45.856Z,83.04
2019-03-04T18:08:16.013Z,82.85
2019-03-04T18:10:46.129Z,83.01
2019-03-04T18:13:16.465Z,83.00
2019-03-04T18:16:05.653Z,83.22
2019-03-04T18:21:31.346Z,83.43
2019-03-04T18:24:22.928Z,83.48
2019-03-04T18:27:25.612Z,83.58
2019-03-04T18:30:13.169Z,83.58
2019-03-04T18:33:27.096Z,83.56
2019-03-04T18:36:35.625Z,83.47
2019-03-04T18:39:28.194Z,83.52
2019-03-04T18:42:23.150Z,83.50
2019-03-04T18:45:12.818Z,83.32
2019-03-04T18:48:21.294Z,83.13
2019-03-04T18:51:12.391Z,83.48
2019-03-04T18:57:05.081Z,83.46
2019-03-04T18:59:35.263Z,83.53
2019-03-04T19:05:27.891Z,83.42
2019-03-04T19:07:50.106Z,83.48
2019-03-04T19:10:21.128Z,83.30
2019-03-04T19:12:51.897Z,83.10
2019-03-04T19:15:22.660Z,83.10
2019-03-04T19:17:53.299Z,83.14
2019-03-04T19:20:29.080Z,83.37
2019-03-04T19:26:01.550Z,83.26
2019-03-04T19:28:52.966Z,83.20
2019-03-04T19:32:07.074Z,83.16
2019-03-04T19:37:20.048Z,83.02
2019-03-04T19:39:50.171Z,83.20
2019-03-04T19:42:20.286Z,82.89
2019-03-04T19:44:50.383Z,82.91
2019-03-04T19:47:20.609Z,82.83
2019-03-04T19:49:50.765Z,82.75
2019-03-04T19:52:20.904Z,82.61
2019-03-04T19:57:45.961Z,82.45
2019-03-04T20:00:37.067Z,82.50
2019-03-04T20:03:07.472Z,82.51
2019-03-04T20:05:37.681Z,82.57
2019-03-04T20:08:07.904Z,82.66
2019-03-04T20:10:38.229Z,82.55
2019-03-04T20:13:08.403Z,82.42
2019-03-04T20:15:38.675Z,82.53
2019-03-04T20:18:08.940Z,82.65
2019-03-04T20:20:59.831Z,82.49
2019-03-04T20:23:30.602Z,82.40
2019-03-04T20:26:01.500Z,82.44
2019-03-04T20:28:33.410Z,82.25
2019-03-04T20:34:24.496Z,82.07
2019-03-04T20:51:45.122Z,81.33
2019-03-04T20:54:15.738Z,81.28
2019-03-04T20:59:55.712Z,81.28
2019-03-04T21:05:17.870Z,81.22
2019-03-04T21:07:49.133Z,81.14
2019-03-04T21:10:20.087Z,80.92
2019-03-04T21:13:35.024Z,80.69
2019-03-04T21:16:01.045Z,80.81
2019-03-04T21:18:50.547Z,80.80
2019-03-04T21:21:26.327Z,80.68
2019-03-04T21:23:56.547Z,80.48
2019-03-04T21:26:32.835Z,80.20
2019-03-04T21:29:42.126Z,80.25
2019-03-04T21:32:50.822Z,80.26
2019-03-04T21:38:34.061Z,79.99
2019-03-04T21:41:43.340Z,79.89
2019-03-04T21:44:51.737Z,79.87
2019-03-04T21:47:44.434Z,79.84
2019-03-04T21:53:33.093Z,79.81
2019-03-04T21:56:26.565Z,79.83
2019-03-04T21:58:56.735Z,79.75
2019-03-04T22:01:51.201Z,79.88
2019-03-04T22:04:21.392Z,80.16
2019-03-04T22:06:51.525Z,80.18
2019-03-04T22:09:40.799Z,80.24
2019-03-04T22:12:14.176Z,80.38
2019-03-04T22:14:45.995Z,80.39
2019-03-04T22:20:00.792Z,80.43
2019-03-04T22:23:09.449Z,80.54
2019-03-04T22:25:40.137Z,80.72
2019-03-04T22:28:10.850Z,80.92
2019-03-04T22:31:01.522Z,81.09
2019-03-04T22:33:33.208Z,81.13
2019-03-04T22:36:05.881Z,81.05
2019-03-04T22:38:36.003Z,81.07
2019-03-04T22:41:06.128Z,81.26
2019-03-04T22:43:36.223Z,81.19
2019-03-04T22:46:06.325Z,81.13
2019-03-04T22:48:36.535Z,81.31
2019-03-04T22:51:06.629Z,81.18
2019-03-04T22:53:36.707Z,81.22
2019-03-04T22:56:06.864Z,81.26
2019-03-04T22:58:36.935Z,81.47
2019-03-04T23:01:40.321Z,81.39
2019-03-04T23:04:31.157Z,81.26
2019-03-04T23:07:22.139Z,81.22
2019-03-04T23:10:30.562Z,81.27
2019-03-04T23:13:38.995Z,81.46
2019-03-04T23:18:53.821Z,81.51
2019-03-04T23:21:23.928Z,81.49
2019-03-04T23:23:54.040Z,81.51
2019-03-04T23:26:24.201Z,81.54
2019-03-04T23:28:54.291Z,81.66
2019-03-04T23:31:24.429Z,81.45
2019-03-04T23:36:36.370Z,81.62
2019-03-04T23:39:27.701Z,81.64
2019-03-04T23:41:58.212Z,81.76
2019-03-04T23:44:28.718Z,81.83
2019-03-04T23:46:59.254Z,81.91
2019-03-04T23:49:29.694Z,81.92
2019-03-04T23:52:00.221Z,81.94
2019-03-04T23:54:30.597Z,82.04
2019-03-04T23:57:01.018Z,82.16
2019-03-04T23:59:31.417Z,82.24
